La rose des vents
Donnes mto: Semaine 04/02/08 - 10/02/08 (S 6)
Date Horaire Temp. E. Hum. E. P.atmo. Pluie Vent 1mn Direction Ensoleilleme Ev.Tr. Solaire P. de rose Temp au vent Rafales
04/02/2008 00:00 7,5 C 76 % 1017,2 hPa 0,0 l/m 4,8 km/h (1 Bft) N-NE 0,00 h 0,025 mm 0 W/m 3,5 C 7,0 C 7,5 km/h (2 Bft)
04/02/2008 01:00 7,5 C 75 % 1016,3 hPa 0,0 l/m 4,4 km/h (1 Bft) N-NE 0,00 h 0,025 mm 0 W/m 3,4 C 7,0 C 6,8 km/h (2 Bft)
04/02/2008 02:00 7,4 C 75 % 1016,1 hPa 0,0 l/m 1,9 km/h (1 Bft) N-NE 0,00 h 0,025 mm 0 W/m 3,4 C 7,4 C 3,8 km/h (1 Bft)
04/02/2008 03:00 7,6 C 75 % 1015,5 hPa 0,0 l/m 3,0 km/h (1 Bft) N-NE 0,00 h 0,025 mm 0 W/m 3,5 C 7,5 C 5,0 km/h (1 Bft)
04/02/2008 04:00 7,5 C 77 % 1014,8 hPa 0,0 l/m 3,6 km/h (1 Bft) N 0,00 h 0,025 mm 0 W/m 3,7 C 7,2 C 6,1 km/h (2 Bft)
04/02/2008 05:00 7,6 C 80 % 1014,4 hPa 0,4 l/m 4,1 km/h (1 Bft) N 0,00 h 0,025 mm 0 W/m 4,3 C 7,2 C 6,6 km/h (2 Bft)
04/02/2008 06:00 6,9 C 86 % 1013,9 hPa 0,2 l/m 3,2 km/h (1 Bft) N 0,00 h 0,025 mm 0 W/m 4,8 C 6,6 C 5,1 km/h (1 Bft)
04/02/2008 07:00 6,9 C 89 % 1014,1 hPa 0,2 l/m 4,1 km/h (1 Bft) O 0,00 h 0,025 mm 5 W/m 5,2 C 6,4 C 6,0 km/h (2 Bft)
04/02/2008 08:00 7,1 C 90 % 1014,1 hPa 1,0 l/m 4,9 km/h (1 Bft) N-NE 0,00 h 0,000 mm 7 W/m 5,7 C 6,5 C 7,4 km/h (2 Bft)
04/02/2008 09:00 7,0 C 92 % 1013,4 hPa 1,8 l/m 5,0 km/h (1 Bft) N-NE 0,00 h 0,000 mm 15 W/m 5,7 C 6,3 C 7,8 km/h (2 Bft)
04/02/2008 10:00 7,0 C 93 % 1012,3 hPa 2,6 l/m 8,0 km/h (2 Bft) N-NE 0,00 h 0,025 mm 26 W/m 5,9 C 5,5 C 13,2 km/h (3 Bft)
04/02/2008 11:00 6,9 C 94 % 1011,4 hPa 8,6 l/m 7,2 km/h (2 Bft) N-NE 0,00 h 0,025 mm 17 W/m 6,0 C 5,7 C 11,4 km/h (2 Bft)
04/02/2008 12:00 6,9 C 94 % 1009,9 hPa 13,0 l/m 5,2 km/h (1 Bft) N 0,00 h 0,025 mm 7 W/m 6,0 C 6,1 C 8,8 km/h (2 Bft)
04/02/2008 13:00 7,7 C 95 % 1008,0 hPa 3,6 l/m 6,8 km/h (2 Bft) N 0,00 h 0,000 mm 103 W/m 6,9 C 6,6 C 11,9 km/h (2 Bft)
04/02/2008 14:00 7,7 C 95 % 1007,2 hPa 0,0 l/m 3,8 km/h (1 Bft) N-NO 0,00 h 0,051 mm 98 W/m 7,0 C 7,4 C 6,0 km/h (2 Bft)
04/02/2008 15:00 8,6 C 94 % 1007,3 hPa 0,0 l/m 3,7 km/h (1 Bft) SE 0,42 h 0,051 mm 195 W/m 7,7 C 8,4 C 5,1 km/h (1 Bft)
04/02/2008 16:00 9,4 C 92 % 1007,6 hPa 0,0 l/m 3,8 km/h (1 Bft) S-SE 0,92 h 0,076 mm 161 W/m 8,2 C 9,1 C 5,3 km/h (1 Bft)
04/02/2008 17:00 8,3 C 91 % 1007,8 hPa 0,0 l/m 2,5 km/h (1 Bft) SO 0,32 h 0,076 mm 35 W/m 6,9 C 8,0 C 3,9 km/h (1 Bft)
04/02/2008 18:00 7,3 C 78 % 1008,2 hPa 0,0 l/m 10,6 km/h (2 Bft) O-SO 0,00 h 0,025 mm 0 W/m 3,7 C 5,6 C 16,0 km/h (3 Bft)
04/02/2008 19:00 8,3 C 60 % 1008,4 hPa 0,0 l/m 13,4 km/h (3 Bft) SO 0,00 h 0,025 mm 0 W/m 1,1 C 6,3 C 19,5 km/h (3 Bft)
04/02/2008 20:00 7,6 C 60 % 1008,6 hPa 0,0 l/m 8,1 km/h (2 Bft) S 0,00 h 0,076 mm 0 W/m 0,4 C 6,3 C 12,1 km/h (2 Bft)
04/02/2008 21:00 8,4 C 52 % 1009,0 hPa 0,0 l/m 11,0 km/h (2 Bft) O-NO 0,00 h 0,051 mm 0 W/m -1,0 C 6,7 C 20,4 km/h (4 Bft)
04/02/2008 22:00 9,1 C 46 % 1009,5 hPa 0,0 l/m 9,1 km/h (2 Bft) E-SE 0,00 h 0,076 mm 0 W/m -2,0 C 7,8 C 16,0 km/h (3 Bft)
04/02/2008 23:00 8,0 C 51 % 1010,2 hPa 0,0 l/m 17,3 km/h (3 Bft) SO 0,00 h 0,076 mm 0 W/m -1,5 C 5,3 C 22,9 km/h (4 Bft)
05/02/2008 00:00 7,8 C 49 % 1010,8 hPa 0,0 l/m 5,4 km/h (1 Bft) E 0,00 h 0,102 mm 0 W/m -2,3 C 7,1 C 8,3 km/h (2 Bft)
05/02/2008 01:00 6,3 C 56 % 1012,1 hPa 0,0 l/m 3,5 km/h (1 Bft) N-NO 0,00 h 0,051 mm 0 W/m -1,7 C 5,9 C 5,8 km/h (2 Bft)
05/02/2008 02:00 5,6 C 58 % 1013,3 hPa 0,0 l/m 1,9 km/h (1 Bft) NO 0,00 h 0,051 mm 0 W/m -2,0 C 5,5 C 3,0 km/h (1 Bft)
05/02/2008 03:00 5,4 C 59 % 1014,2 hPa 0,0 l/m 3,9 km/h (1 Bft) O-NO 0,00 h 0,025 mm 0 W/m -1,9 C 5,0 C 5,1 km/h (1 Bft)
05/02/2008 04:00 5,4 C 60 % 1014,8 hPa 0,0 l/m 4,9 km/h (1 Bft) O-NO 0,00 h 0,025 mm 0 W/m -1,7 C 4,6 C 7,0 km/h (2 Bft)
05/02/2008 05:00 4,2 C 64 % 1015,5 hPa 0,0 l/m 3,8 km/h (1 Bft) E 0,00 h 0,051 mm 0 W/m -2,0 C 3,6 C 5,6 km/h (1 Bft)
05/02/2008 06:00 5,2 C 59 % 1016,4 hPa 0,0 l/m 9,1 km/h (2 Bft) O 0,00 h 0,025 mm 0 W/m -2,1 C 3,2 C 12,6 km/h (3 Bft)
05/02/2008 07:00 5,3 C 55 % 1017,4 hPa 0,0 l/m 8,2 km/h (2 Bft) O-NO 0,08 h 0,051 mm 12 W/m -2,9 C 3,6 C 11,1 km/h (2 Bft)
05/02/2008 08:00 6,7 C 54 % 1018,1 hPa 0,0 l/m 1,7 km/h (1 Bft) NO 1,00 h 0,051 mm 94 W/m -1,8 C 6,6 C 3,0 km/h (1 Bft)
05/02/2008 09:00 8,5 C 51 % 1019,0 hPa 0,0 l/m 5,0 km/h (1 Bft) SO 1,00 h 0,051 mm 255 W/m -1,1 C 8,0 C 7,0 km/h (2 Bft)
05/02/2008 10:00 10,1 C 54 % 1019,6 hPa 0,0 l/m 3,3 km/h (1 Bft) S-SO 1,00 h 0,152 mm 328 W/m 1,3 C 10,1 C 5,2 km/h (1 Bft)
05/02/2008 11:00 11,3 C 53 % 1019,9 hPa 0,0 l/m 2,3 km/h (1 Bft) S 1,00 h 0,178 mm 446 W/m 2,0 C 11,3 C 4,5 km/h (1 Bft)
05/02/2008 12:00 12,6 C 58 % 1020,1 hPa 0,0 l/m 6,1 km/h (2 Bft) S-SE 1,00 h 0,229 mm 493 W/m 4,5 C 12,6 C 9,2 km/h (2 Bft)
05/02/2008 13:00 13,4 C 50 % 1020,0 hPa 0,0 l/m 4,7 km/h (1 Bft) S 1,00 h 0,279 mm 485 W/m 3,1 C 13,4 C 7,9 km/h (2 Bft)
05/02/2008 14:00 14,6 C 40 % 1019,9 hPa 0,0 l/m 3,1 km/h (1 Bft) S 1,00 h 0,279 mm 422 W/m 1,0 C 14,6 C 5,2 km/h (1 Bft)
05/02/2008 15:00 14,5 C 47 % 1020,4 hPa 0,0 l/m 4,2 km/h (1 Bft) S-SE 1,00 h 0,254 mm 297 W/m 3,3 C 14,5 C 6,4 km/h (2 Bft)
05/02/2008 16:00 13,2 C 50 % 1021,0 hPa 0,0 l/m 2,3 km/h (1 Bft) E-NE 0,68 h 0,178 mm 129 W/m 3,0 C 13,2 C 3,9 km/h (1 Bft)
05/02/2008 17:00 10,4 C 52 % 1021,6 hPa 0,0 l/m 2,0 km/h (1 Bft) E-NE 0,05 h 0,076 mm 24 W/m 0,9 C 10,4 C 3,3 km/h (1 Bft)
05/02/2008 18:00 9,4 C 53 % 1022,2 hPa 0,0 l/m 0,7 km/h (0 Bft) E-NE 0,00 h 0,025 mm 0 W/m 0,3 C 9,4 C 1,3 km/h (1 Bft)
05/02/2008 19:00 8,7 C 58 % 1022,7 hPa 0,0 l/m 0,9 km/h (0 Bft) E-NE 0,00 h 0,000 mm 0 W/m 1,0 C 8,7 C 1,9 km/h (1 Bft)
05/02/2008 20:00 8,5 C 60 % 1023,2 hPa 0,0 l/m 2,5 km/h (1 Bft) NO 0,00 h 0,025 mm 0 W/m 1,2 C 8,4 C 3,7 km/h (1 Bft)
05/02/2008 21:00 7,2 C 64 % 1023,6 hPa 0,0 l/m 1,1 km/h (1 Bft) N-NE 0,00 h 0,025 mm 0 W/m 0,9 C 7,2 C 2,0 km/h (1 Bft)
05/02/2008 22:00 6,5 C 67 % 1024,2 hPa 0,0 l/m 2,9 km/h (1 Bft) O 0,00 h 0,025 mm 0 W/m 0,8 C 6,2 C 4,2 km/h (1 Bft)
05/02/2008 23:00 6,2 C 66 % 1024,5 hPa 0,0 l/m 4,0 km/h (1 Bft) O-NO 0,00 h 0,025 mm 0 W/m 0,3 C 5,6 C 5,9 km/h (2 Bft)
06/02/2008 00:00 6,2 C 64 % 1024,8 hPa 0,0 l/m 3,3 km/h (1 Bft) O 0,00 h 0,025 mm 0 W/m -0,0 C 6,0 C 4,7 km/h (1 Bft)
06/02/2008 01:00 6,2 C 61 % 1024,8 hPa 0,0 l/m 4,1 km/h (1 Bft) O-NO 0,00 h 0,025 mm 0 W/m -0,6 C 5,8 C 5,5 km/h (1 Bft)
06/02/2008 02:00 6,4 C 58 % 1024,8 hPa 0,0 l/m 4,3 km/h (1 Bft) NO 0,00 h 0,025 mm 0 W/m -1,2 C 5,9 C 6,0 km/h (2 Bft)
06/02/2008 03:00 6,1 C 60 % 1024,9 hPa 0,0 l/m 4,4 km/h (1 Bft) NO 0,00 h 0,051 mm 0 W/m -1,1 C 5,6 C 5,4 km/h (1 Bft)
06/02/2008 04:00 6,3 C 57 % 1024,9 hPa 0,0 l/m 3,0 km/h (1 Bft) O-NO 0,00 h 0,051 mm 0 W/m -1,6 C 6,0 C 4,6 km/h (1 Bft)
06/02/2008 05:00 6,0 C 60 % 1025,0 hPa 0,0 l/m 3,9 km/h (1 Bft) NO 0,00 h 0,025 mm 0 W/m -1,2 C 5,5 C 5,1 km/h (1 Bft)
06/02/2008 06:00 6,1 C 60 % 1025,0 hPa 0,0 l/m 2,7 km/h (1 Bft) NO 0,00 h 0,025 mm 0 W/m -1,1 C 5,9 C 3,5 km/h (1 Bft)
06/02/2008 07:00 6,0 C 65 % 1025,2 hPa 0,0 l/m 1,9 km/h (1 Bft) NO 0,10 h 0,025 mm 12 W/m -0,2 C 5,9 C 2,7 km/h (1 Bft)
06/02/2008 08:00 6,9 C 64 % 1025,4 hPa 0,0 l/m 0,7 km/h (0 Bft) NO 1,00 h 0,025 mm 89 W/m 0,5 C 6,9 C 1,3 km/h (1 Bft)
06/02/2008 09:00 9,4 C 57 % 1025,1 hPa 0,0 l/m 1,2 km/h (1 Bft) NE 1,00 h 0,051 mm 234 W/m 1,2 C 9,3 C 2,8 km/h (1 Bft)
06/02/2008 10:00 10,9 C 56 % 1024,9 hPa 0,0 l/m 3,7 km/h (1 Bft) NE 1,00 h 0,127 mm 365 W/m 2,3 C 10,9 C 6,1 km/h (2 Bft)
06/02/2008 11:00 12,1 C 55 % 1024,6 hPa 0,0 l/m 6,3 km/h (2 Bft) E-NE 1,00 h 0,203 mm 457 W/m 3,3 C 12,1 C 9,2 km/h (2 Bft)
06/02/2008 12:00 12,5 C 58 % 1024,0 hPa 0,0 l/m 4,5 km/h (1 Bft) E-NE 1,00 h 0,254 mm 492 W/m 4,5 C 12,5 C 7,6 km/h (2 Bft)
06/02/2008 13:00 12,8 C 64 % 1023,1 hPa 0,0 l/m 5,4 km/h (1 Bft) E 0,95 h 0,254 mm 502 W/m 6,2 C 12,8 C 9,4 km/h (2 Bft)
06/02/2008 14:00 12,1 C 73 % 1022,7 hPa 0,0 l/m 6,9 km/h (2 Bft) E-NE 0,53 h 0,279 mm 289 W/m 7,3 C 12,1 C 11,0 km/h (2 Bft)
06/02/2008 15:00 12,4 C 73 % 1022,2 hPa 0,0 l/m 5,2 km/h (1 Bft) E-NE 1,00 h 0,178 mm 305 W/m 7,8 C 12,4 C 9,1 km/h (2 Bft)
06/02/2008 16:00 11,4 C 78 % 1022,5 hPa 0,0 l/m 2,7 km/h (1 Bft) SE 0,68 h 0,178 mm 127 W/m 7,7 C 11,4 C 6,0 km/h (2 Bft)
06/02/2008 17:00 10,3 C 81 % 1023,1 hPa 0,0 l/m 1,6 km/h (1 Bft) E-SE 0,35 h 0,076 mm 29 W/m 7,1 C 10,2 C 3,8 km/h (1 Bft)
06/02/2008 18:00 9,0 C 85 % 1023,7 hPa 0,0 l/m 1,8 km/h (1 Bft) E 0,00 h 0,025 mm 0 W/m 6,6 C 9,0 C 3,0 km/h (1 Bft)
06/02/2008 19:00 8,5 C 87 % 1024,1 hPa 0,0 l/m 6,2 km/h (2 Bft) O 0,00 h 0,000 mm 0 W/m 6,6 C 7,7 C 7,9 km/h (2 Bft)
06/02/2008 20:00 7,9 C 89 % 1024,5 hPa 0,0 l/m 8,6 km/h (2 Bft) O-NO 0,00 h 0,025 mm 0 W/m 6,2 C 6,5 C 11,0 km/h (2 Bft)
06/02/2008 21:00 7,7 C 89 % 1024,9 hPa 0,0 l/m 7,8 km/h (2 Bft) O-NO 0,00 h 0,025 mm 0 W/m 6,0 C 6,3 C 10,1 km/h (2 Bft)
06/02/2008 22:00 7,2 C 90 % 1024,8 hPa 0,0 l/m 8,8 km/h (2 Bft) O 0,00 h 0,025 mm 0 W/m 5,6 C 5,5 C 11,4 km/h (2 Bft)
06/02/2008 23:00 7,6 C 90 % 1024,8 hPa 0,0 l/m 8,8 km/h (2 Bft) O 0,00 h 0,025 mm 0 W/m 6,1 C 6,1 C 11,9 km/h (2 Bft)
07/02/2008 00:00 7,6 C 90 % 1024,8 hPa 0,0 l/m 6,8 km/h (2 Bft) O 0,00 h 0,025 mm 0 W/m 6,1 C 6,5 C 9,1 km/h (2 Bft)
07/02/2008 01:00 6,5 C 89 % 1024,8 hPa 0,0 l/m 2,6 km/h (1 Bft) N-NO 0,00 h 0,025 mm 0 W/m 4,8 C 6,3 C 4,2 km/h (1 Bft)
07/02/2008 02:00 6,8 C 87 % 1024,9 hPa 0,0 l/m 3,4 km/h (1 Bft) NO 0,00 h 0,025 mm 0 W/m 4,9 C 6,6 C 5,1 km/h (1 Bft)
07/02/2008 03:00 7,0 C 84 % 1025,0 hPa 0,0 l/m 2,8 km/h (1 Bft) NO 0,00 h 0,025 mm 0 W/m 4,6 C 7,0 C 3,8 km/h (1 Bft)
07/02/2008 04:00 7,3 C 81 % 1025,2 hPa 0,0 l/m 3,1 km/h (1 Bft) NO 0,00 h 0,025 mm 0 W/m 4,4 C 7,2 C 4,2 km/h (1 Bft)
07/02/2008 05:00 7,2 C 77 % 1025,9 hPa 0,0 l/m 3,3 km/h (1 Bft) NO 0,00 h 0,025 mm 0 W/m 3,4 C 7,0 C 4,8 km/h (1 Bft)
07/02/2008 06:00 7,3 C 70 % 1026,6 hPa 0,0 l/m 4,4 km/h (1 Bft) NO 0,00 h 0,025 mm 0 W/m 2,2 C 6,9 C 6,1 km/h (2 Bft)
07/02/2008 07:00 7,8 C 66 % 1027,1 hPa 0,0 l/m 3,1 km/h (1 Bft) O-NO 0,12 h 0,025 mm 14 W/m 1,8 C 7,6 C 4,3 km/h (1 Bft)
07/02/2008 08:00 9,2 C 59 % 1027,9 hPa 0,0 l/m 3,2 km/h (1 Bft) O-NO 1,00 h 0,025 mm 99 W/m 1,7 C 9,0 C 4,5 km/h (1 Bft)
07/02/2008 09:00 10,8 C 55 % 1028,1 hPa 0,0 l/m 1,3 km/h (1 Bft) O-NO 1,00 h 0,076 mm 245 W/m 2,1 C 10,8 C 2,7 km/h (1 Bft)
07/02/2008 10:00 14,0 C 51 % 1028,4 hPa 0,0 l/m 1,4 km/h (1 Bft) NE 1,00 h 0,127 mm 377 W/m 4,1 C 14,0 C 2,5 km/h (1 Bft)
07/02/2008 11:00 15,7 C 44 % 1028,5 hPa 0,0 l/m 2,7 km/h (1 Bft) E 1,00 h 0,203 mm 472 W/m 3,5 C 15,7 C 5,0 km/h (1 Bft)
07/02/2008 12:00 16,3 C 43 % 1028,3 hPa 0,0 l/m 4,7 km/h (1 Bft) E 1,00 h 0,279 mm 527 W/m 3,8 C 16,3 C 7,9 km/h (2 Bft)
07/02/2008 13:00 16,4 C 44 % 1027,9 hPa 0,0 l/m 6,1 km/h (2 Bft) E 1,00 h 0,305 mm 492 W/m 4,2 C 16,4 C 10,6 km/h (2 Bft)
07/02/2008 14:00 15,6 C 47 % 1027,9 hPa 0,0 l/m 3,8 km/h (1 Bft) E 0,97 h 0,305 mm 336 W/m 4,2 C 15,6 C 6,6 km/h (2 Bft)
07/02/2008 15:00 15,5 C 44 % 1028,0 hPa 0,0 l/m 2,2 km/h (1 Bft) E-SE 0,98 h 0,203 mm 293 W/m 3,4 C 15,5 C 4,2 km/h (1 Bft)
07/02/2008 16:00 14,9 C 45 % 1028,3 hPa 0,0 l/m 1,2 km/h (1 Bft) E 1,00 h 0,178 mm 149 W/m 3,2 C 14,9 C 2,5 km/h (1 Bft)
07/02/2008 17:00 13,5 C 46 % 1028,6 hPa 0,0 l/m 0,3 km/h (0 Bft) E 0,37 h 0,102 mm 31 W/m 2,2 C 13,5 C 1,0 km/h (0 Bft)
07/02/2008 18:00 11,3 C 53 % 1029,2 hPa 0,0 l/m 5,6 km/h (1 Bft) O-NO 0,00 h 0,025 mm 0 W/m 2,1 C 11,3 C 8,0 km/h (2 Bft)
07/02/2008 19:00 10,0 C 60 % 1029,3 hPa 0,0 l/m 10,1 km/h (2 Bft) O-NO 0,00 h 0,051 mm 0 W/m 2,5 C 8,9 C 13,9 km/h (3 Bft)
07/02/2008 20:00 10,3 C 57 % 1029,4 hPa 0,0 l/m 15,8 km/h (3 Bft) O-NO 0,00 h 0,076 mm 0 W/m 2,3 C 9,6 C 19,5 km/h (3 Bft)
07/02/2008 21:00 10,1 C 57 % 1029,4 hPa 0,0 l/m 10,4 km/h (2 Bft) O-NO 0,00 h 0,102 mm 0 W/m 2,0 C 9,8 C 14,3 km/h (3 Bft)
07/02/2008 22:00 9,3 C 60 % 1029,5 hPa 0,0 l/m 9,2 km/h (2 Bft) NO 0,00 h 0,076 mm 0 W/m 1,9 C 8,0 C 12,7 km/h (3 Bft)
07/02/2008 23:00 9,4 C 57 % 1029,4 hPa 0,0 l/m 11,7 km/h (2 Bft) O-NO 0,00 h 0,051 mm 0 W/m 1,4 C 7,6 C 16,0 km/h (3 Bft)
08/02/2008 00:00 9,2 C 57 % 1029,8 hPa 0,0 l/m 6,7 km/h (2 Bft) NO 0,00 h 0,076 mm 0 W/m 1,2 C 8,4 C 9,5 km/h (2 Bft)
08/02/2008 01:00 9,0 C 55 % 1030,1 hPa 0,0 l/m 3,7 km/h (1 Bft) NO 0,00 h 0,051 mm 0 W/m 0,5 C 8,9 C 5,4 km/h (1 Bft)
08/02/2008 02:00 8,8 C 55 % 1030,2 hPa 0,0 l/m 4,6 km/h (1 Bft) NO 0,00 h 0,051 mm 0 W/m 0,3 C 8,5 C 6,4 km/h (2 Bft)
08/02/2008 03:00 8,9 C 51 % 1030,2 hPa 0,0 l/m 5,0 km/h (1 Bft) NO 0,00 h 0,051 mm 0 W/m -0,8 C 8,5 C 6,8 km/h (2 Bft)
08/02/2008 04:00 8,6 C 46 % 1030,2 hPa 0,0 l/m 4,9 km/h (1 Bft) O-NO 0,00 h 0,051 mm 0 W/m -2,3 C 8,2 C 7,0 km/h (2 Bft)
08/02/2008 05:00 8,3 C 44 % 1030,5 hPa 0,0 l/m 4,9 km/h (1 Bft) NO 0,00 h 0,051 mm 0 W/m -3,2 C 7,8 C 6,6 km/h (2 Bft)
08/02/2008 06:00 8,1 C 44 % 1030,9 hPa 0,0 l/m 4,2 km/h (1 Bft) NO 0,00 h 0,051 mm 0 W/m -3,5 C 7,8 C 6,4 km/h (2 Bft)
08/02/2008 07:00 7,7 C 46 % 1031,3 hPa 0,0 l/m 5,0 km/h (1 Bft) NO 0,15 h 0,051 mm 13 W/m -3,2 C 7,2 C 7,1 km/h (2 Bft)
08/02/2008 08:00 8,8 C 45 % 1031,6 hPa 0,0 l/m 3,0 km/h (1 Bft) NO 1,00 h 0,025 mm 95 W/m -2,5 C 8,6 C 4,6 km/h (1 Bft)
08/02/2008 09:00 11,4 C 45 % 1032,1 hPa 0,0 l/m 1,1 km/h (1 Bft) N-NO 1,00 h 0,076 mm 243 W/m -0,0 C 11,4 C 3,0 km/h (1 Bft)
08/02/2008 10:00 13,2 C 48 % 1032,3 hPa 0,0 l/m 3,1 km/h (1 Bft) NE 1,00 h 0,127 mm 375 W/m 2,4 C 13,2 C 5,2 km/h (1 Bft)
08/02/2008 11:00 14,0 C 47 % 1032,3 hPa 0,0 l/m 5,2 km/h (1 Bft) E 1,00 h 0,203 mm 467 W/m 2,8 C 14,0 C 8,8 km/h (2 Bft)
08/02/2008 12:00 14,0 C 49 % 1032,2 hPa 0,0 l/m 5,9 km/h (2 Bft) E 1,00 h 0,279 mm 505 W/m 3,5 C 14,0 C 10,6 km/h (2 Bft)
08/02/2008 13:00 13,5 C 62 % 1031,8 hPa 0,0 l/m 7,7 km/h (2 Bft) E 0,93 h 0,305 mm 474 W/m 6,4 C 13,5 C 13,3 km/h (3 Bft)
08/02/2008 14:00 13,4 C 54 % 1031,4 hPa 0,0 l/m 5,0 km/h (1 Bft) E 1,00 h 0,279 mm 428 W/m 4,2 C 13,4 C 8,8 km/h (2 Bft)
08/02/2008 15:00 13,2 C 50 % 1031,0 hPa 0,0 l/m 3,8 km/h (1 Bft) E 1,00 h 0,254 mm 304 W/m 3,2 C 13,2 C 6,5 km/h (2 Bft)
08/02/2008 16:00 12,7 C 49 % 1030,6 hPa 0,0 l/m 1,3 km/h (1 Bft) SE 1,00 h 0,178 mm 158 W/m 2,3 C 12,7 C 2,8 km/h (1 Bft)
08/02/2008 17:00 11,4 C 54 % 1030,3 hPa 0,0 l/m 3,0 km/h (1 Bft) SE 0,28 h 0,102 mm 31 W/m 2,4 C 11,4 C 4,1 km/h (1 Bft)
08/02/2008 18:00 9,5 C 59 % 1030,3 hPa 0,0 l/m 6,1 km/h (2 Bft) SE 0,00 h 0,025 mm 0 W/m 1,9 C 8,9 C 7,6 km/h (2 Bft)
08/02/2008 19:00 8,7 C 61 % 1030,3 hPa 0,0 l/m 8,7 km/h (2 Bft) O 0,00 h 0,025 mm 0 W/m 1,6 C 7,4 C 11,4 km/h (2 Bft)
08/02/2008 20:00 8,3 C 64 % 1030,2 hPa 0,0 l/m 8,7 km/h (2 Bft) O-NO 0,00 h 0,051 mm 0 W/m 1,9 C 6,9 C 11,6 km/h (2 Bft)
08/02/2008 21:00 8,1 C 64 % 1030,2 hPa 0,0 l/m 4,9 km/h (1 Bft) O 0,00 h 0,051 mm 0 W/m 1,7 C 7,6 C 6,9 km/h (2 Bft)
08/02/2008 22:00 7,7 C 64 % 1030,1 hPa 0,0 l/m 3,5 km/h (1 Bft) O-NO 0,00 h 0,051 mm 0 W/m 1,3 C 7,5 C 5,2 km/h (1 Bft)
08/02/2008 23:00 7,7 C 62 % 1030,1 hPa 0,0 l/m 3,9 km/h (1 Bft) O-NO 0,00 h 0,025 mm 0 W/m 0,9 C 7,4 C 5,2 km/h (1 Bft)
09/02/2008 00:00 8,0 C 58 % 1030,3 hPa 0,0 l/m 6,1 km/h (2 Bft) O 0,00 h 0,051 mm 0 W/m 0,4 C 7,2 C 7,8 km/h (2 Bft)
09/02/2008 01:00 6,8 C 60 % 1030,3 hPa 0,0 l/m 4,8 km/h (1 Bft) O 0,00 h 0,051 mm 0 W/m -0,4 C 6,2 C 6,6 km/h (2 Bft)
09/02/2008 02:00 6,2 C 58 % 1030,3 hPa 0,0 l/m 3,9 km/h (1 Bft) O 0,00 h 0,051 mm 0 W/m -1,3 C 5,6 C 6,1 km/h (2 Bft)
09/02/2008 03:00 6,6 C 55 % 1030,2 hPa 0,0 l/m 9,8 km/h (2 Bft) O 0,00 h 0,051 mm 0 W/m -1,7 C 4,7 C 12,8 km/h (3 Bft)
09/02/2008 04:00 6,8 C 53 % 1029,9 hPa 0,0 l/m 13,1 km/h (3 Bft) O-NO 0,00 h 0,051 mm 0 W/m -2,0 C 4,3 C 16,8 km/h (3 Bft)
09/02/2008 05:00 6,7 C 51 % 1030,0 hPa 0,0 l/m 11,8 km/h (2 Bft) O-NO 0,00 h 0,076 mm 0 W/m -2,6 C 4,4 C 15,6 km/h (3 Bft)
09/02/2008 06:00 6,0 C 54 % 1030,1 hPa 0,0 l/m 11,5 km/h (2 Bft) O 0,00 h 0,076 mm 0 W/m -2,7 C 3,5 C 15,2 km/h (3 Bft)
09/02/2008 07:00 5,5 C 54 % 1030,5 hPa 0,0 l/m 7,9 km/h (2 Bft) O-NO 0,17 h 0,076 mm 14 W/m -3,0 C 3,8 C 10,8 km/h (2 Bft)
09/02/2008 08:00 6,8 C 50 % 1030,8 hPa 0,0 l/m 4,9 km/h (1 Bft) O-NO 1,00 h 0,051 mm 97 W/m -2,9 C 6,0 C 7,5 km/h (2 Bft)
09/02/2008 09:00 9,4 C 49 % 1030,9 hPa 0,0 l/m 2,1 km/h (1 Bft) O 1,00 h 0,076 mm 244 W/m -0,8 C 9,3 C 3,9 km/h (1 Bft)
09/02/2008 10:00 11,5 C 50 % 1030,7 hPa 0,0 l/m 8,4 km/h (2 Bft) O 1,00 h 0,127 mm 380 W/m 1,6 C 11,5 C 12,9 km/h (3 Bft)
09/02/2008 11:00 12,9 C 42 % 1030,3 hPa 0,0 l/m 10,4 km/h (2 Bft) SO 1,00 h 0,229 mm 475 W/m 0,2 C 12,9 C 14,7 km/h (3 Bft)
09/02/2008 12:00 13,7 C 39 % 1029,8 hPa 0,0 l/m 11,7 km/h (2 Bft) S-SO 1,00 h 0,305 mm 514 W/m -0,1 C 13,7 C 16,3 km/h (3 Bft)
09/02/2008 13:00 13,7 C 36 % 1029,3 hPa 0,0 l/m 13,3 km/h (3 Bft) S-SE 1,00 h 0,356 mm 499 W/m -1,2 C 13,7 C 18,0 km/h (3 Bft)
09/02/2008 14:00 13,2 C 41 % 1028,9 hPa 0,0 l/m 10,2 km/h (2 Bft) S-SE 1,00 h 0,356 mm 428 W/m 0,3 C 13,2 C 14,9 km/h (3 Bft)
09/02/2008 15:00 13,0 C 46 % 1028,5 hPa 0,0 l/m 6,3 km/h (2 Bft) S-SE 1,00 h 0,279 mm 309 W/m 1,5 C 13,0 C 9,1 km/h (2 Bft)
09/02/2008 16:00 12,2 C 52 % 1028,2 hPa 0,0 l/m 3,4 km/h (1 Bft) S-SE 1,00 h 0,203 mm 163 W/m 2,7 C 12,2 C 5,7 km/h (1 Bft)
09/02/2008 17:00 10,6 C 60 % 1028,3 hPa 0,0 l/m 4,9 km/h (1 Bft) S 0,28 h 0,102 mm 32 W/m 3,1 C 10,6 C 6,7 km/h (2 Bft)
09/02/2008 18:00 8,7 C 67 % 1028,9 hPa 0,0 l/m 2,9 km/h (1 Bft) S 0,00 h 0,051 mm 0 W/m 2,9 C 8,6 C 4,3 km/h (1 Bft)
09/02/2008 19:00 8,2 C 69 % 1029,2 hPa 0,0 l/m 4,1 km/h (1 Bft) O 0,00 h 0,025 mm 0 W/m 2,9 C 7,9 C 5,4 km/h (1 Bft)
09/02/2008 20:00 7,0 C 72 % 1029,5 hPa 0,0 l/m 6,9 km/h (2 Bft) O-NO 0,00 h 0,025 mm 0 W/m 2,3 C 5,9 C 8,6 km/h (2 Bft)
09/02/2008 21:00 6,9 C 72 % 1029,4 hPa 0,0 l/m 9,6 km/h (2 Bft) O-NO 0,00 h 0,025 mm 0 W/m 2,2 C 5,0 C 12,0 km/h (2 Bft)
09/02/2008 22:00 6,6 C 69 % 1029,6 hPa 0,0 l/m 9,8 km/h (2 Bft) O-NO 0,00 h 0,051 mm 0 W/m 1,4 C 4,6 C 12,6 km/h (3 Bft)
09/02/2008 23:00 6,4 C 70 % 1029,7 hPa 0,0 l/m 10,2 km/h (2 Bft) O-NO 0,00 h 0,051 mm 0 W/m 1,2 C 4,3 C 13,7 km/h (3 Bft)
10/02/2008 00:00 6,4 C 71 % 1029,7 hPa 0,0 l/m 3,8 km/h (1 Bft) NO 0,00 h 0,051 mm 0 W/m 1,5 C 6,1 C 5,6 km/h (1 Bft)
10/02/2008 01:00 5,8 C 72 % 1029,7 hPa 0,0 l/m 3,8 km/h (1 Bft) NO 0,00 h 0,025 mm 0 W/m 1,1 C 5,5 C 5,4 km/h (1 Bft)
10/02/2008 02:00 5,7 C 72 % 1029,7 hPa 0,0 l/m 3,9 km/h (1 Bft) O-NO 0,00 h 0,025 mm 0 W/m 1,0 C 5,3 C 5,4 km/h (1 Bft)
10/02/2008 03:00 5,9 C 69 % 1029,3 hPa 0,0 l/m 5,2 km/h (1 Bft) O-NO 0,00 h 0,025 mm 0 W/m 0,7 C 5,0 C 6,2 km/h (2 Bft)
10/02/2008 04:00 5,7 C 66 % 1029,2 hPa 0,0 l/m 7,4 km/h (2 Bft) O-NO 0,00 h 0,025 mm 0 W/m -0,0 C 4,2 C 10,2 km/h (2 Bft)
10/02/2008 05:00 5,1 C 66 % 1029,0 hPa 0,0 l/m 8,8 km/h (2 Bft) O-NO 0,00 h 0,051 mm 0 W/m -0,6 C 3,1 C 11,9 km/h (2 Bft)
10/02/2008 06:00 4,9 C 67 % 1029,1 hPa 0,0 l/m 6,7 km/h (2 Bft) O 0,00 h 0,051 mm 0 W/m -0,7 C 3,5 C 9,1 km/h (2 Bft)
10/02/2008 07:00 5,0 C 66 % 1029,4 hPa 0,0 l/m 8,3 km/h (2 Bft) O-NO 0,18 h 0,025 mm 14 W/m -0,7 C 3,1 C 10,8 km/h (2 Bft)
10/02/2008 08:00 6,2 C 64 % 1029,6 hPa 0,0 l/m 3,9 km/h (1 Bft) O-NO 1,00 h 0,025 mm 97 W/m 0,0 C 5,6 C 5,7 km/h (1 Bft)
10/02/2008 09:00 8,4 C 62 % 1029,8 hPa 0,0 l/m 0,8 km/h (0 Bft) N-NE 1,00 h 0,051 mm 248 W/m 1,4 C 8,4 C 1,8 km/h (1 Bft)
10/02/2008 10:00 10,8 C 57 % 1029,6 hPa 0,0 l/m 2,0 km/h (1 Bft) E-SE 1,00 h 0,127 mm 388 W/m 2,6 C 10,8 C 3,5 km/h (1 Bft)
10/02/2008 11:00 12,2 C 49 % 1029,5 hPa 0,0 l/m 2,9 km/h (1 Bft) E-SE 1,00 h 0,203 mm 483 W/m 1,9 C 12,2 C 5,1 km/h (1 Bft)
10/02/2008 12:00 13,4 C 44 % 1028,9 hPa 0,0 l/m 4,6 km/h (1 Bft) E-SE 1,00 h 0,254 mm 524 W/m 1,5 C 13,4 C 7,8 km/h (2 Bft)
10/02/2008 13:00 13,3 C 49 % 1028,4 hPa 0,0 l/m 5,7 km/h (1 Bft) E 1,00 h 0,305 mm 506 W/m 2,8 C 13,3 C 9,2 km/h (2 Bft)
10/02/2008 14:00 13,1 C 51 % 1027,8 hPa 0,0 l/m 6,3 km/h (2 Bft) E 1,00 h 0,279 mm 427 W/m 3,1 C 13,1 C 10,3 km/h (2 Bft)
10/02/2008 15:00 12,1 C 58 % 1027,6 hPa 0,0 l/m 9,0 km/h (2 Bft) S-SE 1,00 h 0,254 mm 305 W/m 4,1 C 12,1 C 13,3 km/h (3 Bft)
10/02/2008 16:00 11,3 C 59 % 1027,8 hPa 0,0 l/m 8,1 km/h (2 Bft) S 1,00 h 0,203 mm 166 W/m 3,7 C 11,3 C 11,2 km/h (2 Bft)
10/02/2008 17:00 9,9 C 63 % 1028,1 hPa 0,0 l/m 3,8 km/h (1 Bft) S-SO 0,25 h 0,127 mm 33 W/m 3,3 C 9,9 C 5,2 km/h (1 Bft)
10/02/2008 18:00 8,2 C 69 % 1028,4 hPa 0,0 l/m 3,3 km/h (1 Bft) S-SO 0,00 h 0,025 mm 0 W/m 2,8 C 8,2 C 4,2 km/h (1 Bft)
10/02/2008 19:00 7,3 C 72 % 1028,8 hPa 0,0 l/m 5,3 km/h (1 Bft) O-NO 0,00 h 0,025 mm 0 W/m 2,7 C 6,6 C 7,5 km/h (2 Bft)
10/02/2008 20:00 6,4 C 77 % 1028,9 hPa 0,0 l/m 8,4 km/h (2 Bft) O 0,00 h 0,025 mm 0 W/m 2,6 C 4,7 C 10,8 km/h (2 Bft)
10/02/2008 21:00 6,3 C 76 % 1028,9 hPa 0,0 l/m 9,0 km/h (2 Bft) O-NO 0,00 h 0,025 mm 0 W/m 2,4 C 4,5 C 12,6 km/h (3 Bft)
10/02/2008 22:00 6,0 C 76 % 1029,1 hPa 0,0 l/m 9,0 km/h (2 Bft) O-NO 0,00 h 0,025 mm 0 W/m 2,0 C 4,2 C 12,3 km/h (3 Bft)
10/02/2008 23:00 6,1 C 75 % 1029,4 hPa 0,0 l/m 4,0 km/h (1 Bft) NO 0,00 h 0,025 mm 0 W/m 2,0 C 5,7 C 5,4 km/h (1 Bft)
Min-Date _ 05/02/08 09/02/08 04/02/08 - 04/02/08 - - - - 08/02/08 05/02/08 04/02/08
_ Min-Heure 05:27 13:29 13:45 - 02:06 - - - - 06:32 06:46 02:36
Minimum _ 3,9 C 32 % 1007,0 hPa - 0,0 km/h (0 Bft) - - - - -3,9 C 1,6 C 0,0 km/h (0 Bft)
Max-Date _ 07/02/08 04/02/08 08/02/08 04/02/08 04/02/08 - 04/02/08 09/02/08 06/02/08 04/02/08 07/02/08 04/02/08
_ Max-Heure 12:39 15:21 11:30 12:16 19:05 - 15:17 13:00 13:51 16:39 12:39 19:05
Maximum _ 16,9 C 97 % 1032,4 hPa 13,0 l/m 33,8 km/h
SO (5 Bft)
- 0,02 h 0,356 mm 668 W/m 8,6 C 16,9 C 43,5 km/h
O-SO (6 Bft)
Moyenne _ 9,0 C 63 % 1024,6 hPa #31,4 l/m 5,4 km/h (1 Bft) O-NO #56:46 h #15,017 mm 247 W/m 1,9 C 8,5 C 7,9 km/h (2 Bft)
Roquefort les pins